createdAt,value
2018-11-25T00:00:20.506Z,85.92
2018-11-25T00:01:20.496Z,85.92
2018-11-25T00:02:20.543Z,86.13
2018-11-25T00:03:20.474Z,86.27
2018-11-25T00:04:20.467Z,86.17
2018-11-25T00:05:20.457Z,86.27
2018-11-25T00:06:20.442Z,86.79
2018-11-25T00:07:20.432Z,86.47
2018-11-25T00:08:20.457Z,86.37
2018-11-25T00:09:20.417Z,86.58
2018-11-25T00:10:20.408Z,86.37
2018-11-25T00:11:20.391Z,86.58
2018-11-25T00:12:20.379Z,86.47
2018-11-25T00:13:20.384Z,87.10
2018-11-25T00:14:20.373Z,86.99
2018-11-25T00:15:20.349Z,86.99
2018-11-25T00:16:20.338Z,87.35
2018-11-25T00:17:20.330Z,87.24
2018-11-25T00:18:20.331Z,87.45
2018-11-25T00:19:20.307Z,87.18
2018-11-25T00:20:20.307Z,87.70
2018-11-25T00:21:20.287Z,87.59
2018-11-25T00:22:20.277Z,88.94
2018-11-25T00:23:20.278Z,88.73
2018-11-25T00:24:20.253Z,88.78
2018-11-25T00:25:20.243Z,88.42
2018-11-25T00:26:20.243Z,88.07
2018-11-25T00:27:20.222Z,87.80
2018-11-25T00:28:20.225Z,88.11
2018-11-25T00:29:20.202Z,87.80
2018-11-25T00:30:20.198Z,88.01
2018-11-25T00:31:20.180Z,88.01
2018-11-25T00:32:20.176Z,88.21
2018-11-25T00:33:20.172Z,87.70
2018-11-25T00:34:20.147Z,87.59
2018-11-25T00:35:20.142Z,87.70
2018-11-25T00:36:20.129Z,87.74
2018-11-25T00:37:20.117Z,87.16
2018-11-25T00:38:20.136Z,88.23
2018-11-25T00:39:20.096Z,89.58
2018-11-25T00:40:20.087Z,88.28
2018-11-25T00:41:20.074Z,89.87
2018-11-25T00:42:20.064Z,90.54
2018-11-25T00:43:20.070Z,90.89
2018-11-25T00:44:20.056Z,90.47
2018-11-25T00:45:20.034Z,90.62
2018-11-25T00:46:20.025Z,92.02
2018-11-25T00:47:20.011Z,92.85
2018-11-25T00:48:20.014Z,94.04
2018-11-25T00:49:19.990Z,93.62
2018-11-25T00:50:20.011Z,94.66
2018-11-25T00:51:19.969Z,95.43
2018-11-25T00:52:19.960Z,95.23
2018-11-25T00:53:19.965Z,94.92
2018-11-25T00:54:19.938Z,95.12
2018-11-25T00:55:19.926Z,95.12
2018-11-25T00:56:19.929Z,95.75
2018-11-25T00:57:19.906Z,95.43
2018-11-25T00:58:19.911Z,96.06
2018-11-25T00:59:19.888Z,96.06
2018-11-25T01:00:19.876Z,96.48
2018-11-25T01:01:19.863Z,97.00
2018-11-25T01:02:19.866Z,97.16
2018-11-25T01:03:19.855Z,96.37
2018-11-25T01:04:19.832Z,95.43
2018-11-25T01:05:19.822Z,94.60
2018-11-25T01:06:19.811Z,93.71
2018-11-25T01:07:19.800Z,93.65
2018-11-25T01:08:19.822Z,93.79
2018-11-25T01:09:19.781Z,94.31
2018-11-25T01:10:19.773Z,94.04
2018-11-25T01:11:19.759Z,95.09
2018-11-25T01:12:19.746Z,95.29
2018-11-25T01:13:19.749Z,96.38
2018-11-25T01:14:19.732Z,96.38
2018-11-25T01:15:19.716Z,96.33
2018-11-25T01:16:19.709Z,96.43
2018-11-25T01:17:19.697Z,97.58
2018-11-25T01:18:19.698Z,98.10
2018-11-25T01:19:19.677Z,98.04
2018-11-25T01:20:19.678Z,97.94
2018-11-25T01:21:19.653Z,98.35
2018-11-25T01:22:19.642Z,98.25
2018-11-25T01:23:19.646Z,98.77
2018-11-25T01:24:19.621Z,98.67
2018-11-25T01:25:19.611Z,99.08
2018-11-25T01:26:19.616Z,99.88
2018-11-25T01:27:19.590Z,99.93
2018-11-25T01:28:19.592Z,99.83
2018-11-25T01:29:19.568Z,99.89
2018-11-25T01:30:19.559Z,99.99
2018-11-25T01:31:19.549Z,99.99
2018-11-25T01:32:19.556Z,99.99
2018-11-25T01:33:19.540Z,99.99
2018-11-25T01:34:19.518Z,99.99
2018-11-25T01:35:19.510Z,99.91
2018-11-25T01:36:19.499Z,99.91
2018-11-25T01:37:19.487Z,99.91
2018-11-25T01:38:19.500Z,99.99
2018-11-25T01:39:19.468Z,99.76
2018-11-25T01:40:19.459Z,99.76
2018-11-25T01:41:19.447Z,99.99
2018-11-25T01:42:19.439Z,99.41
2018-11-25T01:43:19.437Z,99.05
2018-11-25T01:44:19.425Z,99.05
2018-11-25T01:45:19.404Z,98.27
2018-11-25T01:46:19.393Z,96.24
2018-11-25T01:47:19.382Z,95.03
2018-11-25T01:48:19.387Z,96.18
2018-11-25T01:49:19.360Z,95.03
2018-11-25T01:50:19.365Z,95.03
2018-11-25T01:51:19.341Z,94.29
2018-11-25T01:52:19.329Z,95.02
2018-11-25T01:53:19.336Z,95.85
2018-11-25T01:54:19.306Z,94.92
2018-11-25T01:55:19.300Z,95.58
2018-11-25T01:56:19.314Z,95.73
2018-11-25T01:57:19.275Z,95.42
2018-11-25T01:58:19.280Z,95.36
2018-11-25T01:59:19.255Z,95.29
2018-11-25T02:00:19.253Z,95.50
2018-11-25T02:01:19.234Z,95.97
2018-11-25T02:02:19.235Z,95.97
2018-11-25T02:03:19.227Z,97.01
2018-11-25T02:04:19.207Z,97.85
2018-11-25T02:05:19.192Z,97.85
2018-11-25T02:06:19.181Z,98.58
2018-11-25T02:07:19.174Z,98.26
2018-11-25T02:08:19.194Z,98.52
2018-11-25T02:09:19.152Z,98.31
2018-11-25T02:10:19.141Z,98.56
2018-11-25T02:11:19.133Z,98.62
2018-11-25T02:12:19.122Z,98.89
2018-11-25T02:13:19.122Z,99.62
2018-11-25T02:14:19.111Z,99.68
2018-11-25T02:15:19.088Z,99.89
2018-11-25T02:16:19.076Z,99.47
2018-11-25T02:17:19.067Z,99.57
2018-11-25T02:18:19.068Z,99.63
2018-11-25T02:19:19.047Z,99.84
2018-11-25T02:20:19.048Z,99.95
2018-11-25T02:21:19.025Z,99.53
2018-11-25T02:22:19.015Z,99.53
2018-11-25T02:23:19.018Z,99.27
2018-11-25T02:24:18.996Z,99.17
2018-11-25T02:25:18.985Z,99.59
2018-11-25T02:26:18.979Z,99.65
2018-11-25T02:27:18.964Z,99.81
2018-11-25T02:28:18.981Z,99.18
2018-11-25T02:29:18.943Z,99.45
2018-11-25T02:30:18.932Z,98.83
2018-11-25T02:31:18.923Z,98.17
2018-11-25T02:32:18.924Z,95.89
2018-11-25T02:33:18.903Z,94.37
2018-11-25T02:34:18.904Z,93.16
2018-11-25T02:35:18.882Z,92.41
2018-11-25T02:36:18.877Z,93.56
2018-11-25T02:37:18.860Z,93.18
2018-11-25T02:38:18.861Z,93.54
2018-11-25T02:39:18.857Z,95.52
2018-11-25T02:40:18.831Z,97.83
2018-11-25T02:41:18.821Z,97.22
2018-11-25T02:42:18.808Z,96.92
2018-11-25T02:43:18.797Z,95.47
2018-11-25T02:44:18.819Z,94.59
2018-11-25T02:45:18.778Z,93.82
2018-11-25T02:46:18.766Z,93.10
2018-11-25T02:47:18.758Z,92.57
2018-11-25T02:48:18.745Z,92.53
2018-11-25T02:49:18.751Z,91.80
2018-11-25T02:50:18.735Z,91.76
2018-11-25T02:51:18.713Z,91.03
2018-11-25T02:52:18.705Z,91.14
2018-11-25T02:53:18.693Z,91.55
2018-11-25T02:54:18.697Z,89.89
2018-11-25T02:55:18.673Z,87.96
2018-11-25T02:56:18.676Z,87.94
2018-11-25T02:57:18.652Z,88.81
2018-11-25T02:58:18.641Z,88.33
2018-11-25T02:59:18.644Z,88.54
2018-11-25T03:00:18.621Z,89.14
2018-11-25T03:01:18.610Z,89.95
2018-11-25T03:02:18.618Z,90.41
2018-11-25T03:03:18.588Z,91.29
2018-11-25T03:04:18.593Z,91.96
2018-11-25T03:05:18.574Z,93.46
2018-11-25T03:06:18.557Z,93.82
2018-11-25T03:07:18.547Z,93.92
2018-11-25T03:08:18.547Z,94.07
2018-11-25T03:09:18.547Z,95.05
2018-11-25T03:10:18.517Z,95.78
2018-11-25T03:11:18.508Z,96.62
2018-11-25T03:12:18.496Z,96.56
2018-11-25T03:13:18.486Z,97.61
2018-11-25T03:14:18.504Z,97.92
2018-11-25T03:15:18.469Z,97.50
2018-11-25T03:16:18.457Z,98.34
2018-11-25T03:17:18.443Z,98.75
2018-11-25T03:18:18.433Z,99.07
2018-11-25T03:19:18.438Z,98.86
2018-11-25T03:20:18.460Z,99.28
2018-11-25T03:21:18.402Z,99.49
2018-11-25T03:22:18.396Z,99.18
2018-11-25T03:23:18.382Z,99.07
2018-11-25T03:24:18.389Z,99.11
2018-11-25T03:25:18.369Z,98.59
2018-11-25T03:26:18.367Z,98.64
2018-11-25T03:27:18.340Z,98.54
2018-11-25T03:28:18.330Z,98.74
2018-11-25T03:29:18.335Z,98.64
2018-11-25T03:30:18.315Z,98.89
2018-11-25T03:31:18.299Z,98.68
2018-11-25T03:32:18.299Z,99.00
2018-11-25T03:33:18.276Z,99.04
2018-11-25T03:34:18.280Z,99.25
2018-11-25T03:35:18.265Z,99.04
2018-11-25T03:36:18.246Z,98.72
2018-11-25T03:37:18.236Z,99.19
2018-11-25T03:38:18.233Z,98.77
2018-11-25T03:39:18.232Z,99.19
2018-11-25T03:40:18.206Z,99.30
2018-11-25T03:41:18.195Z,99.19
2018-11-25T03:42:18.184Z,99.99
2018-11-25T03:43:18.176Z,99.99
2018-11-25T03:44:18.196Z,99.99
2018-11-25T03:45:18.154Z,99.99
2018-11-25T03:46:18.144Z,99.99
2018-11-25T03:47:18.138Z,99.99
2018-11-25T03:48:18.123Z,99.99
2018-11-25T03:49:18.124Z,99.99
2018-11-25T03:50:18.120Z,99.99
2018-11-25T03:51:18.093Z,99.99
2018-11-25T03:52:18.079Z,99.90
2018-11-25T03:53:18.070Z,99.99
2018-11-25T03:54:18.072Z,99.99
2018-11-25T03:55:18.051Z,99.99
2018-11-25T03:56:18.048Z,99.99
2018-11-25T03:57:18.029Z,99.99
2018-11-25T03:58:18.017Z,99.99
2018-11-25T03:59:18.020Z,99.99
2018-11-25T04:00:18.001Z,99.99
2018-11-25T04:01:17.987Z,99.99
2018-11-25T04:02:17.999Z,99.99
2018-11-25T04:03:17.966Z,99.99
2018-11-25T04:04:17.972Z,99.99
2018-11-25T04:05:17.952Z,99.99
2018-11-25T04:06:17.935Z,99.99
2018-11-25T04:07:17.930Z,99.99
2018-11-25T04:08:17.931Z,99.99
2018-11-25T04:09:17.918Z,99.99
2018-11-25T04:10:17.900Z,99.99
2018-11-25T04:11:17.884Z,99.99
2018-11-25T04:12:17.875Z,99.99
2018-11-25T04:13:17.866Z,99.99
2018-11-25T04:14:17.880Z,99.99
2018-11-25T04:15:17.845Z,99.99
2018-11-25T04:16:17.832Z,99.99
2018-11-25T04:17:17.823Z,99.99
2018-11-25T04:18:17.815Z,99.99
2018-11-25T04:19:17.815Z,99.99
2018-11-25T04:20:17.808Z,99.99
2018-11-25T04:21:17.788Z,99.99
2018-11-25T04:22:17.773Z,99.99
2018-11-25T04:23:17.760Z,99.99
2018-11-25T04:24:17.765Z,99.99
2018-11-25T04:25:17.742Z,99.99
2018-11-25T04:26:17.748Z,99.99
2018-11-25T04:27:17.719Z,99.99
2018-11-25T04:28:17.712Z,99.99
2018-11-25T04:29:17.712Z,99.99
2018-11-25T04:30:17.691Z,99.99
2018-11-25T04:31:17.682Z,99.99
2018-11-25T04:32:17.682Z,99.99
2018-11-25T04:33:17.657Z,99.99
2018-11-25T04:34:17.663Z,99.99
2018-11-25T04:35:17.636Z,99.99
2018-11-25T04:36:17.627Z,99.99
2018-11-25T04:37:17.617Z,99.99
2018-11-25T04:38:17.619Z,99.99
2018-11-25T04:39:17.609Z,99.99
2018-11-25T04:40:17.585Z,99.99
2018-11-25T04:41:17.575Z,99.99
2018-11-25T04:42:17.565Z,99.99
2018-11-25T04:43:17.554Z,99.99
2018-11-25T04:44:17.565Z,99.99
2018-11-25T04:45:17.537Z,99.99
2018-11-25T04:46:17.524Z,99.99
2018-11-25T04:47:17.513Z,99.99
2018-11-25T04:48:17.503Z,99.99
2018-11-25T04:49:17.507Z,99.99
2018-11-25T04:50:17.495Z,99.99
2018-11-25T04:51:17.470Z,99.99
2018-11-25T04:52:17.461Z,99.99
2018-11-25T04:53:17.452Z,99.99
2018-11-25T04:54:17.458Z,99.99
2018-11-25T04:55:17.429Z,99.99
2018-11-25T04:56:17.430Z,99.99
2018-11-25T04:57:17.408Z,99.99
2018-11-25T04:58:17.400Z,99.99
2018-11-25T04:59:17.405Z,99.99
2018-11-25T05:00:17.379Z,99.99
2018-11-25T05:01:17.371Z,99.99
2018-11-25T05:02:17.375Z,99.99
2018-11-25T05:03:17.349Z,99.99
2018-11-25T05:04:17.349Z,99.99
2018-11-25T05:05:17.329Z,99.99
2018-11-25T05:06:17.320Z,99.99
2018-11-25T05:07:17.308Z,99.99
2018-11-25T05:08:17.317Z,99.99
2018-11-25T05:09:17.303Z,99.99
2018-11-25T05:10:17.277Z,99.99
2018-11-25T05:11:17.263Z,99.99
2018-11-25T05:12:17.258Z,99.99
2018-11-25T05:13:17.244Z,99.99
2018-11-25T05:14:17.269Z,99.99
2018-11-25T05:15:17.223Z,99.99
2018-11-25T05:16:17.211Z,99.99
2018-11-25T05:17:17.204Z,99.99
2018-11-25T05:18:17.191Z,99.99
2018-11-25T05:19:17.194Z,99.99
2018-11-25T05:20:17.187Z,99.99
2018-11-25T05:21:17.159Z,99.99
2018-11-25T05:22:17.153Z,99.99
2018-11-25T05:23:17.139Z,99.99
2018-11-25T05:24:17.163Z,99.99
2018-11-25T05:25:17.122Z,99.99
2018-11-25T05:26:17.120Z,99.99
2018-11-25T05:27:17.098Z,99.99
2018-11-25T05:28:17.087Z,99.99
2018-11-25T05:29:17.076Z,99.99
2018-11-25T05:30:17.086Z,99.99
2018-11-25T05:31:17.058Z,99.99
2018-11-25T05:32:17.063Z,99.99
2018-11-25T05:33:17.037Z,99.99
2018-11-25T05:34:17.027Z,99.99
2018-11-25T05:35:17.026Z,99.99
2018-11-25T05:36:17.005Z,99.99
2018-11-25T05:37:16.993Z,99.99
2018-11-25T05:38:16.997Z,99.99
2018-11-25T05:39:16.979Z,99.99
2018-11-25T05:40:16.976Z,99.99
2018-11-25T05:41:16.951Z,99.99
2018-11-25T05:42:16.941Z,99.99
2018-11-25T05:43:16.932Z,99.99
2018-11-25T05:44:16.939Z,99.99
2018-11-25T05:45:16.925Z,99.99
2018-11-25T05:46:16.905Z,99.99
2018-11-25T05:47:16.889Z,99.99
2018-11-25T05:48:16.879Z,99.99
2018-11-25T05:49:16.868Z,99.99
2018-11-25T05:50:16.879Z,99.99
2018-11-25T05:51:16.856Z,99.99
2018-11-25T05:52:16.839Z,99.99
2018-11-25T05:53:16.828Z,99.99
2018-11-25T05:54:16.819Z,99.99
2018-11-25T05:55:16.825Z,99.65
2018-11-25T05:56:16.806Z,99.99
2018-11-25T05:57:16.787Z,99.99
2018-11-25T05:58:16.776Z,99.99
2018-11-25T05:59:16.767Z,99.74
2018-11-25T06:00:16.768Z,99.57
2018-11-25T06:01:16.744Z,99.52
2018-11-25T06:02:16.746Z,99.99
2018-11-25T06:03:16.725Z,99.52
2018-11-25T06:04:16.712Z,99.83
2018-11-25T06:05:16.717Z,98.72
2018-11-25T06:06:16.694Z,99.40
2018-11-25T06:07:16.684Z,99.51
2018-11-25T06:08:16.681Z,99.29
2018-11-25T06:09:16.666Z,98.71
2018-11-25T06:10:16.665Z,98.92
2018-11-25T06:11:16.642Z,98.97
2018-11-25T06:12:16.629Z,98.86
2018-11-25T06:13:16.621Z,99.11
2018-11-25T06:14:16.620Z,99.07
2018-11-25T06:15:16.613Z,99.18
2018-11-25T06:16:16.589Z,99.32
2018-11-25T06:17:16.577Z,99.58
2018-11-25T06:18:16.567Z,99.99
2018-11-25T06:19:16.559Z,99.99
2018-11-25T06:20:16.575Z,99.86
2018-11-25T06:21:16.538Z,99.99
2018-11-25T06:22:16.525Z,99.99
2018-11-25T06:23:16.514Z,99.99
2018-11-25T06:24:16.506Z,99.99
2018-11-25T06:25:16.508Z,99.99
2018-11-25T06:26:16.499Z,99.99
2018-11-25T06:27:16.476Z,99.99
2018-11-25T06:28:16.462Z,99.99
2018-11-25T06:29:16.453Z,99.99
2018-11-25T06:30:16.459Z,99.99
2018-11-25T06:31:16.433Z,99.99
2018-11-25T06:32:16.438Z,99.99
2018-11-25T06:33:16.414Z,99.99
2018-11-25T06:34:16.400Z,99.99
2018-11-25T06:35:16.405Z,99.99
2018-11-25T06:36:16.380Z,99.99
2018-11-25T06:37:16.370Z,99.68
2018-11-25T06:38:16.374Z,99.99
2018-11-25T06:39:16.349Z,99.94
2018-11-25T06:40:16.358Z,99.67
2018-11-25T06:41:16.334Z,99.19
2018-11-25T06:42:16.320Z,98.88
2018-11-25T06:43:16.309Z,99.08
2018-11-25T06:44:16.318Z,98.92
2018-11-25T06:45:16.301Z,99.03
2018-11-25T06:46:16.283Z,99.03
2018-11-25T06:47:16.266Z,98.92
2018-11-25T06:48:16.258Z,98.75
2018-11-25T06:49:16.246Z,98.75
2018-11-25T06:50:16.262Z,98.80
2018-11-25T06:51:16.232Z,99.11
2018-11-25T06:52:16.218Z,99.70
2018-11-25T06:53:16.206Z,99.80
2018-11-25T06:54:16.195Z,99.99
2018-11-25T06:55:16.198Z,99.99
2018-11-25T06:56:16.197Z,99.99
2018-11-25T06:57:16.164Z,99.70
2018-11-25T06:58:16.154Z,99.85
2018-11-25T06:59:16.143Z,99.99
2018-11-25T07:00:16.147Z,99.99
2018-11-25T07:01:16.123Z,99.99
2018-11-25T07:02:16.131Z,99.99
2018-11-25T07:03:16.108Z,99.99
2018-11-25T07:04:16.092Z,99.99
2018-11-25T07:05:16.095Z,99.99
2018-11-25T07:06:16.072Z,99.99
2018-11-25T07:07:16.063Z,99.99
2018-11-25T07:08:16.067Z,99.99
2018-11-25T07:09:16.041Z,99.99
2018-11-25T07:10:16.043Z,99.99
2018-11-25T07:11:16.020Z,99.99
2018-11-25T07:12:16.010Z,99.99
2018-11-25T07:13:16.004Z,99.99
2018-11-25T07:14:15.994Z,99.99
2018-11-25T07:15:15.994Z,99.99
2018-11-25T07:16:15.970Z,99.99
2018-11-25T07:17:15.958Z,99.99
2018-11-25T07:18:15.947Z,99.99
2018-11-25T07:19:15.939Z,99.99
2018-11-25T07:20:15.965Z,99.99
2018-11-25T07:21:15.917Z,99.99
2018-11-25T07:22:15.909Z,99.99
2018-11-25T07:23:15.897Z,99.99
2018-11-25T07:24:15.887Z,99.99
2018-11-25T07:25:15.889Z,99.99
2018-11-25T07:26:15.881Z,99.99
2018-11-25T07:27:15.859Z,99.99
2018-11-25T07:28:18.499Z,99.99
2018-11-25T07:29:15.841Z,99.99
2018-11-25T07:30:15.839Z,99.85
2018-11-25T07:31:15.815Z,99.99
2018-11-25T07:32:15.808Z,99.86
2018-11-25T07:33:15.793Z,98.88
2018-11-25T07:34:15.782Z,98.52
2018-11-25T07:35:15.790Z,96.28
2018-11-25T07:36:15.763Z,95.36
2018-11-25T07:37:15.753Z,92.40
2018-11-25T07:38:15.753Z,91.47
2018-11-25T07:39:15.732Z,90.22
2018-11-25T07:40:15.736Z,89.50
2018-11-25T07:41:15.712Z,88.14
2018-11-25T07:42:15.700Z,89.54
2018-11-25T07:43:15.693Z,90.93
2018-11-25T07:44:15.686Z,91.39
2018-11-25T07:45:15.684Z,92.16
2018-11-25T07:46:15.660Z,93.21
2018-11-25T07:47:15.650Z,93.88
2018-11-25T07:48:15.639Z,94.40
2018-11-25T07:49:15.627Z,94.50
2018-11-25T07:50:15.640Z,94.92
2018-11-25T07:51:15.607Z,95.07
2018-11-25T07:52:15.599Z,95.38
2018-11-25T07:53:15.587Z,95.38
2018-11-25T07:54:15.578Z,95.86
2018-11-25T07:55:15.599Z,95.61
2018-11-25T07:56:15.567Z,95.02
2018-11-25T07:57:15.546Z,93.43
2018-11-25T07:58:15.536Z,90.64
2018-11-25T07:59:15.525Z,87.17
2018-11-25T08:00:15.512Z,86.72
2018-11-25T08:01:15.516Z,86.24
2018-11-25T08:02:15.502Z,85.47
2018-11-25T08:03:15.482Z,85.78
2018-11-25T08:04:15.472Z,85.36
2018-11-25T08:05:15.462Z,86.44
2018-11-25T08:06:15.464Z,87.98
2018-11-25T08:07:15.444Z,88.92
2018-11-25T08:08:15.440Z,89.02
2018-11-25T08:09:15.420Z,88.42
2018-11-25T08:10:15.480Z,87.24
2018-11-25T08:11:15.413Z,85.95
2018-11-25T08:12:15.392Z,85.60
2018-11-25T08:13:15.381Z,84.52
2018-11-25T08:14:15.376Z,83.93
2018-11-25T08:15:15.359Z,83.41
2018-11-25T08:16:15.362Z,82.41
2018-11-25T08:17:15.336Z,83.10
2018-11-25T08:18:15.330Z,82.57
2018-11-25T08:19:15.316Z,80.29
2018-11-25T08:20:15.333Z,80.26
2018-11-25T08:21:15.309Z,79.80
2018-11-25T08:22:15.285Z,78.94
2018-11-25T08:23:15.685Z,78.98
2018-11-25T08:24:15.262Z,78.98
2018-11-25T08:25:15.253Z,78.88
2018-11-25T08:26:15.269Z,80.02
2018-11-25T08:27:15.269Z,81.84
2018-11-25T08:28:15.222Z,80.91
2018-11-25T08:29:15.209Z,81.33
2018-11-25T08:30:15.207Z,81.43
2018-11-25T08:31:15.202Z,82.19
2018-11-25T08:32:15.190Z,82.44
2018-11-25T08:33:15.172Z,83.55
2018-11-25T08:34:15.158Z,84.52
2018-11-25T08:35:15.148Z,85.56
2018-11-25T08:36:15.149Z,84.55
2018-11-25T08:37:15.126Z,83.89
2018-11-25T08:38:15.128Z,82.36
2018-11-25T08:39:15.108Z,80.67
2018-11-25T08:40:15.096Z,80.29
2018-11-25T08:41:15.100Z,79.05
2018-11-25T08:42:15.073Z,78.49
2018-11-25T08:43:15.065Z,78.70
2018-11-25T08:44:15.074Z,78.05
2018-11-25T08:45:15.042Z,78.38
2018-11-25T08:46:15.047Z,76.01
2018-11-25T08:47:15.022Z,73.68
2018-11-25T08:48:15.013Z,75.12
2018-11-25T08:49:15.002Z,74.67
2018-11-25T08:50:15.001Z,74.16
2018-11-25T08:51:14.993Z,75.43
2018-11-25T08:52:14.970Z,78.42
2018-11-25T08:53:14.960Z,81.33
2018-11-25T08:54:14.948Z,82.05
2018-11-25T08:55:14.936Z,82.43
2018-11-25T08:56:14.966Z,81.25
2018-11-25T08:57:14.918Z,79.73
2018-11-25T08:58:14.904Z,78.45
2018-11-25T08:59:14.893Z,76.80
2018-11-25T09:00:14.883Z,76.01
2018-11-25T09:01:14.888Z,75.56
2018-11-25T09:02:14.870Z,71.59
2018-11-25T09:03:14.851Z,70.39
2018-11-25T09:04:14.840Z,69.26
2018-11-25T09:05:14.832Z,69.70
2018-11-25T09:06:14.833Z,68.61
2018-11-25T09:07:14.809Z,70.56
2018-11-25T09:08:14.802Z,72.58
2018-11-25T09:09:14.787Z,73.74
2018-11-25T09:10:14.787Z,76.32
2018-11-25T09:11:14.788Z,78.67
2018-11-25T09:12:14.755Z,79.36
2018-11-25T09:13:14.744Z,78.14
2018-11-25T09:14:14.738Z,78.25
2018-11-25T09:15:14.725Z,77.15
2018-11-25T09:16:14.728Z,76.11
2018-11-25T09:17:14.704Z,75.59
2018-11-25T09:18:14.691Z,72.96
2018-11-25T09:19:14.680Z,70.22
2018-11-25T09:20:14.685Z,69.78
2018-11-25T09:21:14.677Z,70.02
2018-11-25T09:22:14.653Z,67.11
2018-11-25T09:23:14.641Z,66.30
2018-11-25T09:24:14.633Z,65.37
2018-11-25T09:25:14.619Z,66.87
2018-11-25T09:26:14.621Z,68.27
2018-11-25T09:27:14.608Z,67.32
2018-11-25T09:28:14.587Z,66.60
2018-11-25T09:29:14.575Z,65.55
2018-11-25T09:30:14.590Z,66.30
2018-11-25T09:31:14.566Z,67.32
2018-11-25T09:32:14.541Z,67.19
2018-11-25T09:33:14.542Z,66.16
2018-11-25T09:34:14.520Z,65.27
2018-11-25T09:35:14.510Z,66.78
2018-11-25T09:36:14.512Z,66.37
2018-11-25T09:37:14.491Z,65.52
2018-11-25T09:38:14.481Z,64.87
2018-11-25T09:39:14.478Z,64.06
2018-11-25T09:40:14.462Z,64.86
2018-11-25T09:41:14.461Z,65.41
2018-11-25T09:42:14.445Z,67.55
2018-11-25T09:43:14.425Z,68.74
2018-11-25T09:44:14.446Z,70.08
2018-11-25T09:45:14.415Z,69.26
2018-11-25T09:46:14.407Z,70.53
2018-11-25T09:47:14.382Z,69.20
2018-11-25T09:50:33.867Z,65.02
2018-11-25T09:51:33.860Z,64.67
2018-11-25T09:52:33.836Z,65.42
2018-11-25T09:53:33.826Z,64.47
2018-11-25T09:54:33.838Z,66.99
2018-11-25T09:55:33.941Z,64.58
2018-11-25T09:56:33.808Z,62.81
2018-11-25T09:57:33.787Z,62.95
2018-11-25T09:58:33.770Z,63.89
2018-11-25T09:59:33.760Z,64.23
2018-11-25T10:00:33.753Z,64.54
2018-11-25T10:01:33.749Z,65.02
2018-11-25T10:02:33.733Z,64.37
2018-11-25T10:03:33.715Z,63.93
2018-11-25T10:04:33.765Z,64.31
2018-11-25T10:05:33.700Z,63.81
2018-11-25T10:06:33.697Z,63.13
2018-11-25T10:07:33.673Z,62.18
2018-11-25T10:08:33.668Z,60.63
2018-11-25T10:09:33.654Z,60.96
2018-11-25T10:10:33.638Z,61.12
2018-11-25T10:11:33.642Z,61.58
2018-11-25T10:12:33.620Z,63.89
2018-11-25T10:13:33.609Z,63.43
2018-11-25T10:14:33.603Z,62.58
2018-11-25T10:15:33.585Z,63.81
2018-11-25T10:16:33.589Z,62.57
2018-11-25T10:17:33.563Z,65.46
2018-11-25T10:18:33.552Z,66.13
2018-11-25T10:19:33.540Z,67.84
2018-11-25T10:20:33.534Z,65.69
2018-11-25T10:21:33.535Z,65.62
2018-11-25T10:22:33.507Z,66.57
2018-11-25T10:23:33.496Z,67.63
2018-11-25T10:24:33.490Z,67.70
2018-11-25T10:25:33.487Z,68.01
2018-11-25T10:26:33.487Z,67.67
2018-11-25T10:27:33.457Z,66.00
2018-11-25T10:28:33.441Z,67.33
2018-11-25T10:29:33.433Z,67.19
2018-11-25T10:30:33.430Z,69.17
2018-11-25T10:31:33.422Z,68.55
2018-11-25T10:32:33.399Z,70.12
2018-11-25T10:33:33.392Z,66.92
2018-11-25T10:34:33.382Z,67.33
2018-11-25T10:35:33.366Z,68.42
2018-11-25T10:36:33.369Z,66.38
2018-11-25T10:37:33.343Z,66.38
2018-11-25T10:38:33.333Z,67.47
2018-11-25T10:39:33.323Z,65.47
2018-11-25T10:40:33.317Z,63.53
2018-11-25T10:41:33.315Z,64.59
2018-11-25T10:42:33.291Z,63.57
2018-11-25T10:43:33.279Z,64.51
2018-11-25T10:44:33.268Z,66.10
2018-11-25T10:45:33.257Z,66.88
2018-11-25T10:46:33.264Z,69.61
2018-11-25T10:47:33.234Z,68.22
2018-11-25T10:48:33.224Z,67.10
2018-11-25T10:49:33.213Z,64.93
2018-11-25T10:50:33.201Z,66.33
2018-11-25T10:51:33.203Z,63.31
2018-11-25T10:52:33.197Z,63.68
2018-11-25T10:53:33.170Z,61.95
2018-11-25T10:54:33.164Z,60.91
2018-11-25T10:55:33.145Z,62.16
2018-11-25T10:56:33.153Z,62.16
2018-11-25T10:57:33.124Z,62.26
2018-11-25T10:58:33.118Z,61.57
2018-11-25T10:59:33.102Z,62.05
2018-11-25T11:00:33.090Z,63.00
2018-11-25T11:01:33.094Z,62.70
2018-11-25T11:02:33.071Z,64.90
2018-11-25T11:03:33.056Z,63.58
2018-11-25T11:04:33.046Z,63.20
2018-11-25T11:05:33.041Z,62.93
2018-11-25T11:06:33.038Z,65.00
2018-11-25T11:07:33.013Z,64.59
2018-11-25T11:08:33.002Z,64.69
2018-11-25T11:09:32.991Z,65.67
2018-11-25T11:10:32.981Z,66.36
2018-11-25T11:11:32.989Z,64.42
2018-11-25T11:12:32.957Z,65.23
2018-11-25T11:13:32.946Z,65.92
2018-11-25T11:14:32.934Z,65.00
2018-11-25T11:15:32.924Z,64.22
2018-11-25T11:16:32.958Z,63.15
2018-11-25T11:17:32.910Z,61.44
2018-11-25T11:18:32.890Z,61.93
2018-11-25T11:19:32.879Z,61.38
2018-11-25T11:20:32.869Z,61.41
2018-11-25T11:21:32.856Z,62.80
2018-11-25T11:22:32.860Z,63.47
2018-11-25T11:23:32.837Z,64.89
2018-11-25T11:24:32.824Z,66.35
2018-11-25T11:25:32.844Z,66.69
2018-11-25T11:26:32.813Z,66.75
2018-11-25T11:27:32.803Z,67.34
2018-11-25T11:28:32.785Z,65.26
2018-11-25T11:29:32.768Z,66.53
2018-11-25T11:30:32.759Z,64.87
2018-11-25T11:31:32.757Z,63.71
2018-11-25T11:32:32.747Z,63.71
2018-11-25T11:33:32.728Z,62.87
2018-11-25T11:34:32.715Z,62.32
2018-11-25T11:35:32.705Z,65.50
2018-11-25T11:36:32.702Z,66.93
2018-11-25T11:37:32.697Z,67.88
2018-11-25T11:38:32.670Z,67.00
2018-11-25T11:39:32.659Z,65.74
2018-11-25T11:40:32.651Z,66.08
2018-11-25T11:41:32.639Z,66.28
2018-11-25T11:42:32.653Z,68.15
2018-11-25T11:43:32.617Z,69.24
2018-11-25T11:44:32.613Z,70.50
2018-11-25T11:45:32.599Z,70.87
2018-11-25T11:46:32.590Z,70.98
2018-11-25T11:47:32.586Z,70.81
2018-11-25T11:48:32.579Z,69.85
2018-11-25T11:49:32.552Z,69.31
2018-11-25T11:50:32.540Z,67.98
2018-11-25T11:51:32.530Z,67.98
2018-11-25T11:52:32.532Z,66.75
2018-11-25T11:53:32.509Z,69.55
2018-11-25T11:54:32.503Z,69.11
2018-11-25T11:55:32.489Z,68.26
2018-11-25T11:56:39.919Z,70.00
2018-11-25T11:57:33.479Z,68.90
2018-11-25T11:58:32.452Z,68.15
2018-11-25T11:59:32.443Z,70.09
2018-11-25T12:00:32.438Z,68.29
2018-11-25T12:01:32.421Z,67.68
2018-11-25T12:02:32.422Z,68.19
2018-11-25T12:03:32.399Z,68.29
2018-11-25T12:04:32.390Z,68.32
2018-11-25T12:05:32.377Z,69.31
2018-11-25T12:06:32.371Z,69.01
2018-11-25T12:07:32.366Z,68.93
2018-11-25T12:08:32.342Z,69.65
2018-11-25T12:09:32.331Z,71.11
2018-11-25T12:10:32.325Z,72.24
2018-11-25T12:11:32.311Z,72.31
2018-11-25T12:12:32.319Z,74.05
2018-11-25T12:13:32.288Z,73.74
2018-11-25T12:14:32.277Z,73.78
2018-11-25T12:15:32.272Z,75.11
2018-11-25T12:16:32.264Z,75.25
2018-11-25T12:17:32.258Z,75.45
2018-11-25T12:18:32.244Z,75.80
2018-11-25T12:19:32.225Z,75.76
2018-11-25T12:20:32.249Z,76.17
2018-11-25T12:21:32.201Z,74.80
2018-11-25T12:22:32.204Z,75.15
2018-11-25T12:23:32.186Z,76.34
2018-11-25T12:24:32.169Z,75.59
2018-11-25T12:25:32.162Z,74.57
2018-11-25T12:26:32.147Z,74.91
2018-11-25T12:27:32.148Z,75.25
2018-11-25T12:28:32.129Z,75.66
2018-11-25T12:29:32.112Z,76.41
2018-11-25T12:30:32.104Z,75.69
2018-11-25T12:31:32.105Z,73.50
2018-11-25T12:32:32.096Z,73.78
2018-11-25T12:33:32.073Z,73.57
2018-11-25T12:34:32.063Z,73.33
2018-11-25T12:35:32.046Z,72.92
2018-11-25T12:36:32.046Z,72.34
2018-11-25T12:37:36.210Z,72.11
2018-11-25T12:38:32.017Z,72.24
2018-11-25T12:39:32.006Z,74.29
2018-11-25T12:40:32.003Z,72.44
2018-11-25T12:41:31.981Z,72.65
2018-11-25T12:42:31.986Z,74.02
2018-11-25T12:43:31.971Z,73.81
2018-11-25T12:44:31.951Z,74.12
2018-11-25T12:45:31.958Z,75.04
2018-11-25T12:46:31.936Z,73.81
2018-11-25T12:47:31.939Z,73.47
2018-11-25T12:48:31.910Z,73.33
2018-11-25T12:49:31.911Z,72.20
2018-11-25T12:50:31.884Z,73.03
2018-11-25T12:51:31.872Z,72.99
2018-11-25T12:52:31.876Z,71.97
2018-11-25T12:53:31.848Z,71.94
2018-11-25T12:54:31.844Z,71.94